NZQN/ZQN METAR and TAF weather

Enter ICAO airport designator
Station Type Date Time Source
NZQN METAR UTC NOAA

Error!


Station Type Date Time Source
NZQN Decoded METAR UTC NOAA

Error!

Station Type Date Time Source
NZQN TAF 2018/12/10 11:20 UTC NOAA

TAF NZQN 101006Z 1011/1105 04005KT 9999 FEW015 BKN030
TEMPO 1016/1020 7000 RA
TEMPO 1023/1105 6000 SHRA
BECMG 1100/1102 16015KT


Example: see airport list